首页
METAR-TAF:

METAR-TAF

机场 :

哈尔滨, 中华人民共和国

哈尔滨太平国际机场

纬度: 45-45N, 经度: 126-46E, 海拔: 143米

当前天气观测

该预报发布于21分钟前的03:00 UTC
风速10节,风向西
温度 -17°C
湿度 54%
气压 1022 hPa
能见度10公里或以上
1500米以下无云,无积雨云

METAR: ZYHB 200300Z 26005MPS CAVOK M17/M24 Q1022 NOSIG

时间: 11:21 (03:21 UTC)

预报

该预报发布于8小时和13分钟前的19:08 UTC
预报有效从20日的 00点(UTC)到 20日的 24点(UTC)
风速10节,风向西,有时为19节阵风
能見度: 6000
散云层高于3000英尺

TAF: ZYHB 191908Z 2000/2024 26005G10MPS 6000 SCT030 TXM15/06Z TNM26/22Z

超过4000个机场的气象观测和天气预报(METAR&TAF报告)。

可查询的气象台以黄色和红色小点在地图上表示。

将鼠标移到小点上方,可查看气象台名称。

然后点击查看天气观测和预报。

如需切换地图:点击带黑十字的绿色按钮放大地图;点击带横线的绿色按钮缩小地图;或者点击绿色箭头查看邻近地区的地图。


METAR-TAF: